Time;durP1;ratioP1;P1;durP2;ratioP2;P2;SDS_P1;SDS_P2;PMS_P1;PMS_P2;Temp;Humidity;BMP_temperature;BMP_pressure;BME280_temperature;BME280_humidity;BME280_pressure;Samples;Min_cycle;Max_cycle;Signal;HPM_P1;HPM_P2
2021/12/26 00:00:10;;;;;;;;;;;0.70;99.90;;;;;;5003548;28;20077;-71
2021/12/26 00:02:39;;;;;;;;;;;0.70;99.90;;;;;;5002164;28;20085;-71
2021/12/26 00:05:07;;;;;;;;;;;0.70;99.90;;;;;;5002523;28;20092;-71
2021/12/26 00:07:34;;;;;;;;;;;0.70;99.90;;;;;;5003490;28;21142;-71
2021/12/26 00:10:04;;;;;;;;;;;0.60;99.90;;;;;;5002680;28;20060;-71
2021/12/26 00:12:31;;;;;;;;;;;0.60;99.90;;;;;;5002873;28;20072;-71
2021/12/26 00:14:58;;;;;;;;;;;0.60;99.90;;;;;;5003376;28;21043;-71
2021/12/26 00:17:25;;;;;;;;;;;0.50;99.90;;;;;;5002199;28;20082;-71
2021/12/26 00:19:52;;;;;;;;;;;0.50;99.90;;;;;;5003183;28;21031;-71
2021/12/26 00:22:19;;;;;;;;;;;0.40;99.90;;;;;;5002499;28;20116;-71
2021/12/26 00:24:47;;;;;;;;;;;0.40;99.90;;;;;;5003018;28;20140;-71
2021/12/26 00:27:16;;;;;;;;;;;0.40;99.90;;;;;;5002629;28;20059;-70
2021/12/26 00:29:45;;;;;;;;;;;0.40;99.90;;;;;;5002199;28;21145;-70
2021/12/26 00:32:12;;;;;;;;;;;0.30;99.90;;;;;;5002777;28;21011;-71
2021/12/26 00:34:39;;;;;;;;;;;0.30;99.90;;;;;;5003178;28;20186;-72
2021/12/26 00:37:07;;;;;;;;;;;0.30;99.90;;;;;;5002636;28;20099;-71
2021/12/26 00:39:36;;;;;;;;;;;0.30;99.90;;;;;;5002464;28;21200;-71
2021/12/26 00:42:03;;;;;;;;;;;0.30;99.90;;;;;;5003267;28;20109;-70
2021/12/26 00:44:38;;;;;;;;;;;0.20;99.90;;;;;;5002856;28;20154;-70
2021/12/26 00:47:05;;;;;;;;;;;0.20;99.90;;;;;;5002122;28;20057;-70
2021/12/26 00:49:34;;;;;;;;;;;0.20;99.90;;;;;;5002413;28;20059;-70
2021/12/26 00:52:01;;;;;;;;;;;0.20;99.90;;;;;;5002295;28;20062;-71
2021/12/26 00:54:28;;;;;;;;;;;0.20;99.90;;;;;;5002259;28;20582;-71
2021/12/26 00:56:56;;;;;;;;;;;0.20;99.90;;;;;;5001737;28;20267;-71
2021/12/26 00:59:23;;;;;;;;;;;0.20;99.90;;;;;;5002400;28;20258;-71
2021/12/26 01:01:52;;;;;;;;;;;0.20;99.90;;;;;;5002083;28;20089;-71
2021/12/26 01:04:19;;;;;;;;;;;0.20;99.90;;;;;;5002433;28;20077;-71
2021/12/26 01:06:47;;;;;;;;;;;0.20;99.90;;;;;;5001724;28;20067;-71
2021/12/26 01:09:19;;;;;;;;;;;0.20;99.90;;;;;;5001044;28;21161;-71
2021/12/26 01:11:50;;;;;;;;;;;0.10;99.90;;;;;;5002636;28;20052;-71
2021/12/26 01:14:26;;;;;;;;;;;0.10;99.90;;;;;;5002982;28;20244;-71
2021/12/26 01:17:19;;;;;;;;;;;0.00;99.90;;;;;;5003488;28;20161;-71
2021/12/26 01:20:02;;;;;;;;;;;0.00;99.90;;;;;;5002917;28;21126;-70
2021/12/26 01:22:31;;;;;;;;;;;-0.10;99.90;;;;;;5012005;22;21698;-69
2021/12/26 01:25:05;;;;;;;;;;;-0.10;99.90;;;;;;5002655;28;20058;-69
2021/12/26 01:27:33;;;;;;;;;;;-0.10;99.90;;;;;;5001597;28;20261;-69
2021/12/26 01:30:00;;;;;;;;;;;-0.10;99.90;;;;;;4985954;28;20068;-69
2021/12/26 01:32:30;;;;;;;;;;;-0.10;99.90;;;;;;5005806;28;20059;-69
2021/12/26 01:35:00;;;;;;;;;;;-0.10;99.90;;;;;;5009818;28;20058;-69
2021/12/26 01:37:39;;;;;;;;;;;-0.10;99.90;;;;;;5005607;28;20057;-69
2021/12/26 01:40:40;;;;;;;;;;;-0.10;99.90;;;;;;4991161;28;20103;-69
2021/12/26 01:43:30;;;;;;;;;;;-0.10;99.90;;;;;;5009087;28;20065;-69
2021/12/26 01:46:10;;;;;;;;;;;-0.10;99.90;;;;;;4989909;28;20174;-70
2021/12/26 01:48:40;;;;;;;;;;;-0.10;99.90;;;;;;5006465;28;20254;-69
2021/12/26 01:51:07;;;;;;;;;;;-0.10;99.90;;;;;;5006403;28;20060;-69
2021/12/26 01:53:38;;;;;;;;;;;0.00;99.90;;;;;;5006316;28;20051;-69
2021/12/26 01:56:06;;;;;;;;;;;0.00;99.90;;;;;;5005806;28;21301;-69
2021/12/26 01:58:35;;;;;;;;;;;0.10;99.90;;;;;;5005677;28;20207;-70
2021/12/26 02:01:11;;;;;;;;;;;0.10;99.90;;;;;;5006436;28;20260;-70
2021/12/26 02:03:41;;;;;;;;;;;0.10;99.90;;;;;;5006506;28;20067;-69
2021/12/26 02:06:09;;;;;;;;;;;0.10;99.90;;;;;;4988802;28;20149;-69
2021/12/26 02:08:45;;;;;;;;;;;0.10;99.90;;;;;;5005318;28;20052;-70
2021/12/26 02:11:12;;;;;;;;;;;0.10;99.90;;;;;;4989481;28;20060;-71
2021/12/26 02:13:40;;;;;;;;;;;0.10;99.90;;;;;;5005184;28;20096;-70
2021/12/26 02:16:10;;;;;;;;;;;0.10;99.90;;;;;;5004464;28;20052;-71
2021/12/26 02:18:37;;;;;;;;;;;0.20;99.90;;;;;;5005192;28;20052;-70
2021/12/26 02:21:16;;;;;;;;;;;0.20;99.90;;;;;;5005019;28;20062;-71
2021/12/26 02:23:58;;;;;;;;;;;0.20;99.90;;;;;;5006383;28;20244;-70
2021/12/26 02:29:09;;;;;;;;;;;0.20;99.90;;;;;;4988711;28;20048;-70
2021/12/26 02:31:36;;;;;;;;;;;0.30;99.90;;;;;;5005020;28;21107;-71
2021/12/26 02:34:04;;;;;;;;;;;0.30;99.90;;;;;;5005013;28;20061;-71
2021/12/26 02:36:32;;;;;;;;;;;0.30;99.90;;;;;;5004499;28;20196;-70
2021/12/26 02:39:00;;;;;;;;;;;0.30;99.90;;;;;;5003924;28;20069;-71
2021/12/26 02:41:28;;;;;;;;;;;0.30;99.90;;;;;;5004548;28;20058;-70
2021/12/26 02:43:55;;;;;;;;;;;0.30;99.90;;;;;;5004394;28;21126;-71
2021/12/26 02:46:22;;;;;;;;;;;0.40;99.90;;;;;;5004390;28;20108;-70
2021/12/26 02:48:49;;;;;;;;;;;0.40;99.90;;;;;;5004666;28;20080;-71
2021/12/26 02:51:17;;;;;;;;;;;0.50;99.90;;;;;;5004418;28;20076;-69
2021/12/26 02:53:46;;;;;;;;;;;0.50;99.90;;;;;;5005148;28;20066;-71
2021/12/26 02:56:14;;;;;;;;;;;0.50;99.90;;;;;;5004068;28;20252;-71
2021/12/26 02:58:41;;;;;;;;;;;0.50;99.90;;;;;;5004407;28;20078;-71
2021/12/26 03:01:10;;;;;;;;;;;0.50;99.90;;;;;;5004321;28;20058;-70
2021/12/26 03:03:38;;;;;;;;;;;0.50;99.90;;;;;;5004904;28;20188;-71
2021/12/26 03:06:09;;;;;;;;;;;0.60;99.90;;;;;;5003403;28;20141;-71
2021/12/26 03:08:37;;;;;;;;;;;0.60;99.90;;;;;;5004250;28;21215;-70
2021/12/26 03:11:06;;;;;;;;;;;0.70;99.90;;;;;;5004713;28;20068;-70
2021/12/26 03:13:33;;;;;;;;;;;0.60;99.90;;;;;;5004202;28;20059;-70
2021/12/26 03:16:00;;;;;;;;;;;0.70;99.90;;;;;;5003991;28;20068;-70
2021/12/26 03:18:28;;;;;;;;;;;0.60;99.90;;;;;;5003495;28;20140;-71
2021/12/26 03:20:55;;;;;;;;;;;0.70;99.90;;;;;;5003818;28;21116;-71
2021/12/26 03:23:23;;;;;;;;;;;0.70;99.90;;;;;;5003997;28;21268;-70
2021/12/26 03:25:51;;;;;;;;;;;0.70;99.90;;;;;;5003646;28;20075;-71
2021/12/26 03:28:20;;;;;;;;;;;0.70;99.90;;;;;;5003557;28;21384;-71
2021/12/26 03:30:49;;;;;;;;;;;0.70;99.90;;;;;;5004472;28;20177;-69
2021/12/26 03:33:16;;;;;;;;;;;0.70;99.90;;;;;;5004402;28;20052;-71
2021/12/26 03:35:43;;;;;;;;;;;0.70;99.90;;;;;;5003776;28;20069;-71
2021/12/26 03:38:11;;;;;;;;;;;0.80;99.90;;;;;;5003538;28;20060;-71
2021/12/26 03:40:51;;;;;;;;;;;0.80;99.90;;;;;;5006966;28;20099;-71
2021/12/26 03:43:20;;;;;;;;;;;0.80;99.90;;;;;;5003733;28;20052;-70
2021/12/26 03:45:48;;;;;;;;;;;0.80;99.90;;;;;;5003123;28;20097;-71
2021/12/26 03:48:16;;;;;;;;;;;0.80;99.90;;;;;;5003117;28;20211;-71
2021/12/26 03:50:43;;;;;;;;;;;0.80;99.90;;;;;;5006885;28;20085;-71
2021/12/26 03:53:11;;;;;;;;;;;0.90;99.90;;;;;;4985423;28;21168;-71
2021/12/26 03:55:41;;;;;;;;;;;0.90;99.90;;;;;;5020192;28;20074;-71
2021/12/26 03:58:09;;;;;;;;;;;0.90;99.90;;;;;;5018797;28;20060;-71
2021/12/26 04:00:38;;;;;;;;;;;0.90;99.90;;;;;;5019803;28;20219;-71
2021/12/26 04:03:05;;;;;;;;;;;0.90;99.90;;;;;;5018002;28;21055;-68
2021/12/26 04:05:40;;;;;;;;;;;0.90;99.90;;;;;;4980053;28;20056;-71
2021/12/26 04:08:07;;;;;;;;;;;0.90;99.90;;;;;;4985305;28;20188;-71
2021/12/26 04:10:34;;;;;;;;;;;0.90;99.90;;;;;;5020078;28;20060;-71
2021/12/26 04:13:02;;;;;;;;;;;0.90;99.90;;;;;;5020119;28;21185;-71
2021/12/26 04:15:30;;;;;;;;;;;0.90;99.90;;;;;;5019423;28;20057;-70
2021/12/26 04:18:00;;;;;;;;;;;0.90;99.90;;;;;;4986762;28;20075;-71
2021/12/26 04:20:29;;;;;;;;;;;0.90;99.90;;;;;;5020402;28;20060;-71
2021/12/26 04:22:57;;;;;;;;;;;0.90;99.90;;;;;;5019841;28;20058;-70
2021/12/26 04:25:24;;;;;;;;;;;0.90;99.90;;;;;;5019204;28;20068;-69
2021/12/26 04:27:51;;;;;;;;;;;0.90;99.90;;;;;;5019255;28;20081;-70
2021/12/26 04:30:19;;;;;;;;;;;0.90;99.90;;;;;;5019548;28;21270;-70
2021/12/26 04:32:47;;;;;;;;;;;0.90;99.90;;;;;;5019636;28;20051;-70
2021/12/26 04:35:17;;;;;;;;;;;0.90;99.90;;;;;;5019826;28;20050;-69
2021/12/26 04:37:44;;;;;;;;;;;0.90;99.90;;;;;;5019111;28;21161;-69
2021/12/26 04:40:13;;;;;;;;;;;0.90;99.90;;;;;;5019717;28;20089;-70
2021/12/26 04:43:00;;;;;;;;;;;0.90;99.90;;;;;;5006211;28;20051;-70
2021/12/26 04:45:32;;;;;;;;;;;0.80;99.90;;;;;;5019393;28;20091;-69
2021/12/26 04:48:22;;;;;;;;;;;0.90;99.90;;;;;;4984295;28;20080;-70
2021/12/26 04:50:51;;;;;;;;;;;0.80;99.90;;;;;;5019074;28;20198;-69
2021/12/26 04:53:18;;;;;;;;;;;0.80;99.90;;;;;;5019191;28;20277;-70
2021/12/26 04:55:45;;;;;;;;;;;0.90;99.90;;;;;;5019211;28;20153;-71
2021/12/26 04:58:12;;;;;;;;;;;0.90;99.90;;;;;;5019288;28;20274;-70
2021/12/26 05:00:40;;;;;;;;;;;0.90;99.90;;;;;;5019693;28;20060;-70
2021/12/26 05:03:08;;;;;;;;;;;0.90;99.90;;;;;;5019371;28;21246;-70
2021/12/26 05:05:36;;;;;;;;;;;0.90;99.90;;;;;;5019340;28;20065;-70
2021/12/26 05:08:06;;;;;;;;;;;0.90;99.90;;;;;;5023090;28;20064;-70
2021/12/26 05:10:33;;;;;;;;;;;0.90;99.90;;;;;;4990173;28;20211;-71
2021/12/26 05:13:00;;;;;;;;;;;0.90;99.90;;;;;;5023532;28;20078;-71
2021/12/26 05:15:28;;;;;;;;;;;0.90;99.90;;;;;;5023123;28;20154;-70
2021/12/26 05:17:56;;;;;;;;;;;0.90;99.90;;;;;;5022892;28;20264;-70
2021/12/26 05:20:24;;;;;;;;;;;0.90;99.90;;;;;;5023260;28;20102;-70
2021/12/26 05:22:53;;;;;;;;;;;0.90;99.90;;;;;;4990067;28;21151;-70
2021/12/26 05:25:23;;;;;;;;;;;0.90;99.90;;;;;;5023233;28;20396;-70
2021/12/26 05:27:50;;;;;;;;;;;0.90;99.90;;;;;;5022636;28;20074;-68
2021/12/26 05:30:19;;;;;;;;;;;0.90;99.90;;;;;;5022789;28;20076;-70
2021/12/26 05:32:49;;;;;;;;;;;0.90;99.90;;;;;;5022957;28;21257;-70
2021/12/26 05:35:17;;;;;;;;;;;0.90;99.90;;;;;;5023320;28;20282;-70
2021/12/26 05:37:45;;;;;;;;;;;0.90;99.90;;;;;;5023089;28;20060;-69
2021/12/26 05:40:14;;;;;;;;;;;0.90;99.90;;;;;;5023354;28;20258;-70
2021/12/26 05:42:43;;;;;;;;;;;0.90;99.90;;;;;;5022861;28;20071;-70
2021/12/26 05:45:11;;;;;;;;;;;0.90;99.90;;;;;;5022687;28;20189;-70
2021/12/26 05:47:53;;;;;;;;;;;0.90;99.90;;;;;;5022814;28;20362;-70
2021/12/26 05:50:21;;;;;;;;;;;0.90;99.90;;;;;;5022759;28;20059;-70
2021/12/26 05:52:49;;;;;;;;;;;0.90;99.90;;;;;;5022687;28;20058;-70
2021/12/26 05:55:18;;;;;;;;;;;0.90;99.90;;;;;;5022329;28;20088;-69
2021/12/26 05:57:51;;;;;;;;;;;0.90;99.90;;;;;;5022567;28;20060;-69
2021/12/26 06:00:19;;;;;;;;;;;0.90;99.90;;;;;;5022971;28;20306;-70
2021/12/26 06:02:46;;;;;;;;;;;0.90;99.90;;;;;;4997384;28;21298;-70
2021/12/26 06:05:14;;;;;;;;;;;0.90;99.90;;;;;;4972884;28;21047;-70
2021/12/26 06:07:41;;;;;;;;;;;0.90;99.90;;;;;;4975272;28;20076;-69
2021/12/26 06:10:09;;;;;;;;;;;0.90;99.90;;;;;;4969075;28;20267;-69
2021/12/26 06:12:37;;;;;;;;;;;0.90;99.90;;;;;;4987631;28;20058;-70
2021/12/26 06:15:06;;;;;;;;;;;0.90;99.90;;;;;;5006749;28;20065;-69
2021/12/26 06:17:37;;;;;;;;;;;0.90;99.90;;;;;;5005726;28;20263;-70
2021/12/26 06:20:22;;;;;;;;;;;0.90;99.90;;;;;;4998266;28;20067;-70
2021/12/26 06:23:13;;;;;;;;;;;0.90;99.90;;;;;;4941334;28;20300;-68
2021/12/26 06:25:59;;;;;;;;;;;0.90;99.90;;;;;;4989189;28;21149;-70
2021/12/26 06:28:37;;;;;;;;;;;0.90;99.90;;;;;;4968836;28;20086;-71
2021/12/26 06:31:28;;;;;;;;;;;0.90;99.90;;;;;;4988158;28;20069;-70
2021/12/26 06:34:14;;;;;;;;;;;1.00;99.90;;;;;;4991354;28;20287;-70
2021/12/26 06:37:00;;;;;;;;;;;0.90;99.90;;;;;;4998589;28;20381;-71
2021/12/26 06:39:45;;;;;;;;;;;1.00;99.90;;;;;;5010354;28;20657;-69
2021/12/26 06:42:37;;;;;;;;;;;1.00;99.90;;;;;;4965959;28;20076;-70
2021/12/26 06:45:23;;;;;;;;;;;1.00;99.90;;;;;;5029257;28;20075;-71
2021/12/26 06:48:11;;;;;;;;;;;1.00;99.90;;;;;;5036827;28;20075;-70
2021/12/26 06:50:40;;;;;;;;;;;1.00;99.90;;;;;;5033580;28;20244;-70
2021/12/26 06:53:07;;;;;;;;;;;1.00;99.90;;;;;;5033022;28;20060;-70
2021/12/26 06:55:34;;;;;;;;;;;1.00;99.90;;;;;;5034761;28;20176;-71
2021/12/26 06:58:01;;;;;;;;;;;1.00;99.90;;;;;;5033428;28;20068;-69
2021/12/26 07:00:28;;;;;;;;;;;1.00;99.90;;;;;;5035214;28;20060;-70
2021/12/26 07:02:56;;;;;;;;;;;1.00;99.90;;;;;;5034899;28;20067;-71
2021/12/26 07:05:24;;;;;;;;;;;1.00;99.90;;;;;;5007550;28;21171;-70
2021/12/26 07:08:03;;;;;;;;;;;1.00;99.90;;;;;;5004244;28;20263;-70
2021/12/26 07:10:30;;;;;;;;;;;1.00;99.90;;;;;;5001158;28;20286;-69
2021/12/26 07:12:59;;;;;;;;;;;1.00;99.90;;;;;;4968637;28;20154;-70
2021/12/26 07:15:33;;;;;;;;;;;1.10;99.90;;;;;;4968992;28;20288;-70
2021/12/26 07:18:02;;;;;;;;;;;1.00;99.90;;;;;;4968030;28;20066;-71
2021/12/26 07:20:35;;;;;;;;;;;1.00;99.90;;;;;;4968753;28;20067;-71
2021/12/26 07:23:23;;;;;;;;;;;1.00;99.90;;;;;;4986669;28;20234;-71
2021/12/26 07:25:54;;;;;;;;;;;1.10;99.90;;;;;;4968848;28;20059;-70
2021/12/26 07:28:22;;;;;;;;;;;1.10;99.90;;;;;;4967766;28;20190;-71
2021/12/26 07:31:14;;;;;;;;;;;1.10;99.90;;;;;;4968033;28;20088;-71
2021/12/26 07:33:43;;;;;;;;;;;1.10;99.90;;;;;;4967516;28;21173;-71
2021/12/26 07:36:12;;;;;;;;;;;1.10;99.90;;;;;;4968051;28;20257;-70
2021/12/26 07:38:54;;;;;;;;;;;1.20;99.90;;;;;;4967895;28;20186;-71
2021/12/26 07:41:25;;;;;;;;;;;1.20;99.90;;;;;;4968019;28;20051;-71
2021/12/26 07:43:53;;;;;;;;;;;1.40;99.90;;;;;;4967610;28;20060;-71
2021/12/26 07:46:40;;;;;;;;;;;1.50;99.90;;;;;;4986122;28;20221;-70
2021/12/26 07:49:16;;;;;;;;;;;1.50;99.90;;;;;;4967835;28;20095;-70
2021/12/26 07:52:09;;;;;;;;;;;1.60;99.90;;;;;;4987212;28;20239;-70
2021/12/26 07:54:55;;;;;;;;;;;1.70;99.90;;;;;;4986888;28;20258;-70
2021/12/26 07:57:44;;;;;;;;;;;1.80;99.90;;;;;;4986597;28;20228;-70
2021/12/26 08:00:30;;;;;;;;;;;1.70;99.90;;;;;;4987756;28;20264;-70
2021/12/26 08:02:58;;;;;;;;;;;1.60;99.90;;;;;;4986651;28;20051;-70
2021/12/26 08:05:57;;;;;;;;;;;1.50;99.90;;;;;;4930118;28;20076;-70
2021/12/26 08:08:43;;;;;;;;;;;1.50;99.90;;;;;;4967018;28;20067;-70
2021/12/26 08:11:10;;;;;;;;;;;1.50;99.90;;;;;;4975528;28;20103;-70
2021/12/26 08:13:37;;;;;;;;;;;1.50;99.90;;;;;;4987925;28;20278;-70
2021/12/26 08:16:05;;;;;;;;;;;1.50;99.90;;;;;;4987422;28;21078;-71
2021/12/26 08:18:32;;;;;;;;;;;1.50;99.90;;;;;;5003767;28;21026;-70
2021/12/26 08:20:59;;;;;;;;;;;1.50;99.90;;;;;;4986642;28;20079;-69
2021/12/26 08:23:27;;;;;;;;;;;1.50;99.90;;;;;;4986976;28;20073;-70
2021/12/26 08:25:56;;;;;;;;;;;1.50;99.90;;;;;;5003936;28;21094;-69
2021/12/26 08:28:23;;;;;;;;;;;1.50;99.90;;;;;;5003160;28;21154;-72
2021/12/26 08:30:50;;;;;;;;;;;1.50;99.90;;;;;;5002910;28;20067;-70
2021/12/26 08:33:18;;;;;;;;;;;1.50;99.90;;;;;;5003291;28;20306;-71
2021/12/26 08:35:45;;;;;;;;;;;1.60;99.90;;;;;;5002393;28;20051;-70
2021/12/26 08:38:13;;;;;;;;;;;1.60;99.90;;;;;;5002421;28;20059;-71
2021/12/26 08:40:41;;;;;;;;;;;1.60;99.90;;;;;;5002560;28;20051;-71
2021/12/26 08:43:10;;;;;;;;;;;1.60;99.90;;;;;;5002910;28;20060;-72
2021/12/26 08:45:37;;;;;;;;;;;1.70;99.90;;;;;;5002524;28;20060;-71
2021/12/26 08:48:05;;;;;;;;;;;1.70;99.90;;;;;;5002686;28;21026;-71
2021/12/26 08:50:32;;;;;;;;;;;1.70;99.90;;;;;;5002787;28;20153;-70
2021/12/26 08:52:59;;;;;;;;;;;1.70;99.90;;;;;;5002883;28;20154;-70
2021/12/26 08:55:27;;;;;;;;;;;1.80;99.90;;;;;;5003014;28;20099;-70
2021/12/26 08:57:55;;;;;;;;;;;1.80;99.90;;;;;;5002333;28;21169;-71
2021/12/26 09:00:24;;;;;;;;;;;1.80;99.90;;;;;;5002698;28;20132;-70
2021/12/26 09:02:51;;;;;;;;;;;1.80;99.90;;;;;;5003216;28;20084;-70
2021/12/26 09:05:18;;;;;;;;;;;1.80;99.90;;;;;;5002123;28;20060;-70
2021/12/26 09:07:45;;;;;;;;;;;1.80;99.90;;;;;;5002132;28;20083;-71
2021/12/26 09:10:13;;;;;;;;;;;1.80;99.90;;;;;;5003282;28;21192;-71
2021/12/26 09:12:41;;;;;;;;;;;1.90;99.90;;;;;;5003325;28;20077;-71
2021/12/26 09:15:09;;;;;;;;;;;2.00;99.90;;;;;;5002574;28;21007;-70
2021/12/26 09:17:37;;;;;;;;;;;2.00;99.90;;;;;;5001911;28;21144;-71
2021/12/26 09:20:05;;;;;;;;;;;2.10;99.90;;;;;;5002319;28;20051;-70
2021/12/26 09:22:32;;;;;;;;;;;2.10;99.90;;;;;;5002074;28;20078;-71
2021/12/26 09:24:59;;;;;;;;;;;2.10;99.90;;;;;;5002621;28;21097;-71
2021/12/26 09:27:27;;;;;;;;;;;2.20;99.90;;;;;;5002136;28;21035;-71
2021/12/26 09:29:55;;;;;;;;;;;2.20;99.90;;;;;;5002234;28;20081;-70
2021/12/26 09:32:22;;;;;;;;;;;2.20;99.90;;;;;;4985641;28;21190;-71
2021/12/26 09:34:51;;;;;;;;;;;2.30;99.90;;;;;;5002688;28;20051;-71
2021/12/26 09:37:18;;;;;;;;;;;2.30;99.90;;;;;;5003093;28;20069;-71
2021/12/26 09:39:45;;;;;;;;;;;2.40;99.90;;;;;;5002115;28;20215;-70
2021/12/26 09:42:12;;;;;;;;;;;2.40;99.90;;;;;;5002944;28;21023;-70
2021/12/26 09:44:39;;;;;;;;;;;2.50;99.90;;;;;;5002274;28;21067;-70
2021/12/26 09:47:08;;;;;;;;;;;2.40;99.90;;;;;;5002692;28;20052;-70
2021/12/26 09:49:36;;;;;;;;;;;2.50;99.90;;;;;;5002443;28;20212;-70
2021/12/26 09:52:05;;;;;;;;;;;2.50;99.90;;;;;;5004370;28;20099;-69
2021/12/26 09:54:32;;;;;;;;;;;2.50;99.90;;;;;;5006313;28;20190;-70
2021/12/26 09:56:59;;;;;;;;;;;2.50;99.90;;;;;;5006426;28;20084;-70
2021/12/26 09:59:27;;;;;;;;;;;2.50;99.90;;;;;;5004776;28;21290;-71
2021/12/26 10:01:56;;;;;;;;;;;2.60;99.90;;;;;;5006603;28;20261;-70
2021/12/26 10:04:24;;;;;;;;;;;2.70;99.90;;;;;;5003607;28;21162;-70
2021/12/26 10:06:52;;;;;;;;;;;2.80;99.90;;;;;;5009519;28;20090;-71
2021/12/26 10:09:21;;;;;;;;;;;2.90;99.90;;;;;;4969590;28;20095;-71
2021/12/26 10:11:49;;;;;;;;;;;3.10;99.90;;;;;;4983086;28;21261;-70
2021/12/26 10:14:17;;;;;;;;;;;3.10;99.90;;;;;;4989308;28;20059;-71
2021/12/26 10:16:45;;;;;;;;;;;3.30;99.90;;;;;;5005388;28;20216;-71
2021/12/26 10:19:12;;;;;;;;;;;3.30;99.90;;;;;;5005172;28;20081;-70
2021/12/26 10:21:41;;;;;;;;;;;3.20;99.90;;;;;;5004843;28;20068;-71
2021/12/26 10:24:11;;;;;;;;;;;3.20;99.90;;;;;;5005463;28;20060;-71
2021/12/26 10:26:41;;;;;;;;;;;3.20;99.90;;;;;;5004845;28;20154;-70
2021/12/26 10:29:12;;;;;;;;;;;3.30;99.90;;;;;;5004726;28;20087;-70
2021/12/26 10:31:44;;;;;;;;;;;3.40;99.90;;;;;;5005381;28;20069;-71
2021/12/26 10:34:15;;;;;;;;;;;3.40;99.90;;;;;;5005566;28;20100;-72
2021/12/26 10:36:43;;;;;;;;;;;3.60;99.90;;;;;;5004961;28;20051;-71
2021/12/26 10:39:12;;;;;;;;;;;3.80;99.90;;;;;;5004723;28;20066;-70
2021/12/26 10:41:44;;;;;;;;;;;3.80;99.90;;;;;;5004686;28;20203;-70
2021/12/26 10:44:25;;;;;;;;;;;3.70;99.90;;;;;;5004847;28;20235;-72
2021/12/26 10:46:53;;;;;;;;;;;3.80;99.90;;;;;;5004659;28;20250;-71
2021/12/26 10:49:31;;;;;;;;;;;3.80;99.90;;;;;;5003379;28;21129;-71
2021/12/26 10:51:59;;;;;;;;;;;3.80;99.90;;;;;;5004987;28;20146;-71
2021/12/26 10:54:31;;;;;;;;;;;3.80;99.90;;;;;;5004727;28;21253;-71
2021/12/26 10:57:13;;;;;;;;;;;3.80;99.90;;;;;;5004703;28;20186;-71
2021/12/26 10:59:42;;;;;;;;;;;3.90;99.90;;;;;;5004976;28;20140;-69
2021/12/26 11:02:09;;;;;;;;;;;4.60;99.90;;;;;;5004742;28;20067;-72
2021/12/26 11:04:36;;;;;;;;;;;4.50;99.90;;;;;;5003808;28;20067;-71
2021/12/26 11:07:05;;;;;;;;;;;4.20;99.90;;;;;;5005456;28;20100;-71
2021/12/26 11:09:32;;;;;;;;;;;4.10;99.90;;;;;;5004406;28;20233;-71
2021/12/26 11:12:00;;;;;;;;;;;3.90;99.90;;;;;;4992995;28;20082;-72
2021/12/26 11:14:29;;;;;;;;;;;3.90;99.90;;;;;;5004704;28;20069;-72
2021/12/26 11:16:56;;;;;;;;;;;3.80;99.90;;;;;;5003970;28;20088;-70
2021/12/26 11:19:39;;;;;;;;;;;3.80;99.90;;;;;;5003821;28;20060;-71
2021/12/26 11:22:07;;;;;;;;;;;3.70;99.90;;;;;;5003990;28;20059;-72
2021/12/26 11:24:35;;;;;;;;;;;3.70;99.90;;;;;;5004192;28;20057;-71
2021/12/26 11:27:03;;;;;;;;;;;3.70;99.90;;;;;;5003940;28;20067;-72
2021/12/26 11:29:32;;;;;;;;;;;3.70;99.90;;;;;;5003436;28;20091;-72
2021/12/26 11:31:59;;;;;;;;;;;3.70;99.90;;;;;;5003837;28;20171;-69
2021/12/26 11:34:27;;;;;;;;;;;3.60;99.90;;;;;;4988082;28;20141;-70
2021/12/26 11:36:54;;;;;;;;;;;3.60;99.90;;;;;;5003887;28;20158;-70
2021/12/26 11:39:41;;;;;;;;;;;3.60;99.90;;;;;;5007398;28;21108;-70
2021/12/26 11:42:48;;;;;;;;;;;3.60;99.90;;;;;;5007403;28;20075;-70
2021/12/26 11:45:37;;;;;;;;;;;3.60;99.90;;;;;;4982834;28;20200;-69
2021/12/26 11:48:43;;;;;;;;;;;3.60;99.90;;;;;;5007574;28;20167;-70
2021/12/26 11:51:37;;;;;;;;;;;3.60;99.90;;;;;;4967021;28;20060;-72
2021/12/26 11:54:48;;;;;;;;;;;3.60;99.90;;;;;;5004100;28;21125;-71
2021/12/26 11:57:38;;;;;;;;;;;3.50;99.90;;;;;;5004048;28;20070;-71
2021/12/26 12:00:10;;;;;;;;;;;3.50;99.90;;;;;;5003683;28;20060;-71
2021/12/26 12:02:43;;;;;;;;;;;3.60;99.90;;;;;;5007668;28;20074;-70
2021/12/26 12:05:11;;;;;;;;;;;3.70;99.90;;;;;;5003733;28;20060;-71
2021/12/26 12:07:50;;;;;;;;;;;3.70;99.90;;;;;;5003375;28;20088;-71
2021/12/26 12:10:48;;;;;;;;;;;3.70;99.90;;;;;;4986399;28;20058;-72
2021/12/26 12:13:36;;;;;;;;;;;3.70;99.90;;;;;;4967972;28;20078;-72
2021/12/26 12:16:05;;;;;;;;;;;3.80;99.90;;;;;;4966902;28;20052;-71
2021/12/26 12:18:33;;;;;;;;;;;3.80;99.90;;;;;;4966861;28;20069;-71
2021/12/26 12:21:08;;;;;;;;;;;3.90;99.90;;;;;;4967086;28;21268;-71
2021/12/26 12:23:35;;;;;;;;;;;4.00;99.90;;;;;;4967027;28;20162;-72
2021/12/26 12:26:03;;;;;;;;;;;4.10;99.90;;;;;;4966508;28;20061;-71
2021/12/26 12:28:31;;;;;;;;;;;4.20;99.90;;;;;;4966729;28;21170;-70
2021/12/26 12:31:15;;;;;;;;;;;4.20;99.90;;;;;;4967148;28;20060;-72
2021/12/26 12:33:44;;;;;;;;;;;4.20;99.90;;;;;;4967047;28;20060;-72
2021/12/26 12:36:12;;;;;;;;;;;4.30;99.90;;;;;;4966458;28;20080;-71
2021/12/26 12:38:40;;;;;;;;;;;4.30;99.90;;;;;;4966199;28;20092;-72
2021/12/26 12:41:10;;;;;;;;;;;4.30;99.90;;;;;;4966994;28;20057;-71
2021/12/26 12:43:45;;;;;;;;;;;4.30;99.90;;;;;;4967045;28;20067;-71
2021/12/26 12:46:13;;;;;;;;;;;4.20;99.90;;;;;;4966994;28;21138;-72
2021/12/26 12:48:44;;;;;;;;;;;4.30;99.90;;;;;;4965783;28;20142;-71
2021/12/26 12:51:33;;;;;;;;;;;4.30;99.90;;;;;;4966489;28;21289;-71
2021/12/26 12:54:01;;;;;;;;;;;4.30;99.90;;;;;;4967153;28;20182;-71
2021/12/26 12:56:44;;;;;;;;;;;4.40;99.90;;;;;;4966233;28;20278;-72
2021/12/26 12:59:27;;;;;;;;;;;4.50;99.90;;;;;;4966145;28;20061;-71
2021/12/26 13:01:55;;;;;;;;;;;4.60;99.90;;;;;;4966522;28;20069;-70
2021/12/26 13:04:24;;;;;;;;;;;4.70;99.90;;;;;;4967230;28;21051;-71
2021/12/26 13:06:53;;;;;;;;;;;4.70;99.90;;;;;;4966383;28;20240;-70
2021/12/26 13:09:20;;;;;;;;;;;4.70;99.90;;;;;;4966297;28;20081;-72
2021/12/26 13:11:49;;;;;;;;;;;4.70;99.90;;;;;;4979315;28;20439;-71
2021/12/26 13:14:34;;;;;;;;;;;4.80;99.90;;;;;;4986946;28;20162;-71
2021/12/26 13:17:02;;;;;;;;;;;4.80;99.90;;;;;;5002621;28;20063;-72
2021/12/26 13:19:29;;;;;;;;;;;4.80;99.90;;;;;;5002124;28;20083;-72
2021/12/26 13:21:57;;;;;;;;;;;4.80;99.90;;;;;;5022488;22;20060;-70
2021/12/26 13:24:31;;;;;;;;;;;4.80;99.90;;;;;;5000508;28;24137;-70
2021/12/26 13:26:58;;;;;;;;;;;4.70;99.90;;;;;;5003885;28;20076;-70
2021/12/26 13:29:25;;;;;;;;;;;4.70;99.90;;;;;;5005986;28;20068;-70
2021/12/26 13:31:52;;;;;;;;;;;4.60;99.90;;;;;;5006468;28;20068;-70
2021/12/26 13:34:19;;;;;;;;;;;4.50;99.90;;;;;;5006341;28;20082;-70
2021/12/26 13:36:46;;;;;;;;;;;4.50;99.90;;;;;;5006669;28;20079;-70
2021/12/26 13:39:19;;;;;;;;;;;4.50;99.90;;;;;;5005690;28;20068;-70
2021/12/26 13:41:47;;;;;;;;;;;4.50;99.90;;;;;;5006281;28;20078;-70
2021/12/26 13:44:14;;;;;;;;;;;4.50;99.90;;;;;;5006691;28;20067;-70
2021/12/26 13:46:41;;;;;;;;;;;4.40;99.90;;;;;;5005888;28;20074;-70
2021/12/26 13:49:11;;;;;;;;;;;4.40;99.90;;;;;;5006166;28;20068;-70
2021/12/26 13:51:39;;;;;;;;;;;4.40;99.90;;;;;;5006734;28;20079;-70
2021/12/26 13:54:07;;;;;;;;;;;4.40;99.90;;;;;;5006406;28;21206;-70
2021/12/26 13:56:46;;;;;;;;;;;4.30;99.90;;;;;;5005732;28;20051;-70
2021/12/26 13:59:27;;;;;;;;;;;4.20;99.90;;;;;;5006499;28;20067;-71
2021/12/26 14:01:54;;;;;;;;;;;4.20;99.90;;;;;;5006454;28;20060;-70
2021/12/26 14:04:23;;;;;;;;;;;4.30;99.90;;;;;;5006348;28;20066;-70
2021/12/26 14:06:50;;;;;;;;;;;4.30;99.90;;;;;;5005523;28;21257;-70
2021/12/26 14:09:17;;;;;;;;;;;4.30;99.90;;;;;;5005280;28;20067;-70
2021/12/26 14:11:46;;;;;;;;;;;4.30;99.90;;;;;;5005327;28;20075;-69
2021/12/26 14:14:15;;;;;;;;;;;4.20;99.90;;;;;;5006610;28;20099;-70
2021/12/26 14:16:43;;;;;;;;;;;4.10;99.90;;;;;;5005602;28;21153;-69
2021/12/26 14:19:11;;;;;;;;;;;4.10;99.90;;;;;;5005417;28;21141;-69
2021/12/26 14:21:42;;;;;;;;;;;4.10;99.90;;;;;;5005480;28;21299;-69
2021/12/26 14:24:09;;;;;;;;;;;4.10;99.90;;;;;;5005190;28;20068;-69
2021/12/26 14:26:39;;;;;;;;;;;4.10;99.90;;;;;;5005392;28;21257;-70
2021/12/26 14:29:08;;;;;;;;;;;4.00;99.90;;;;;;5006044;28;20050;-70
2021/12/26 14:31:36;;;;;;;;;;;4.00;99.90;;;;;;5005684;28;20076;-70
2021/12/26 14:34:05;;;;;;;;;;;3.90;99.90;;;;;;5006105;28;20051;-70
2021/12/26 14:36:41;;;;;;;;;;;3.90;99.90;;;;;;5004799;28;20069;-70
2021/12/26 14:39:09;;;;;;;;;;;3.90;99.90;;;;;;5004968;28;20059;-70
2021/12/26 14:41:37;;;;;;;;;;;3.80;99.90;;;;;;5005625;28;20084;-69
2021/12/26 14:44:13;;;;;;;;;;;3.80;99.90;;;;;;5005288;28;20066;-69
2021/12/26 14:46:40;;;;;;;;;;;3.80;99.90;;;;;;5004946;28;20054;-70
2021/12/26 14:49:08;;;;;;;;;;;3.80;99.90;;;;;;5003823;28;20099;-70
2021/12/26 14:51:35;;;;;;;;;;;3.80;99.90;;;;;;5005076;28;20169;-70
2021/12/26 14:54:04;;;;;;;;;;;3.80;99.90;;;;;;5004662;28;20076;-70